sensor_id;sensor_type;location;lat;lon;timestamp;temperature;humidity
11112;DHT22;5609;49.466;8.468;2023-02-28T00:00:00;0.70;99.90
11112;DHT22;5609;49.466;8.468;2023-02-28T00:02:33;0.70;99.90
11112;DHT22;5609;49.466;8.468;2023-02-28T00:05:00;0.60;99.90
11112;DHT22;5609;49.466;8.468;2023-02-28T00:07:28;0.60;99.90
11112;DHT22;5609;49.466;8.468;2023-02-28T00:09:55;0.60;99.90
11112;DHT22;5609;49.466;8.468;2023-02-28T00:12:23;0.60;99.90
11112;DHT22;5609;49.466;8.468;2023-02-28T00:14:51;0.50;99.90
11112;DHT22;5609;49.466;8.468;2023-02-28T00:17:18;0.60;99.90
11112;DHT22;5609;49.466;8.468;2023-02-28T00:19:46;0.50;99.90
11112;DHT22;5609;49.466;8.468;2023-02-28T00:22:13;0.40;99.90
11112;DHT22;5609;49.466;8.468;2023-02-28T00:24:40;0.30;99.90
11112;DHT22;5609;49.466;8.468;2023-02-28T00:27:07;0.40;99.90
11112;DHT22;5609;49.466;8.468;2023-02-28T00:29:36;0.30;99.90
11112;DHT22;5609;49.466;8.468;2023-02-28T00:32:03;0.30;99.90
11112;DHT22;5609;49.466;8.468;2023-02-28T00:34:30;0.30;99.90
11112;DHT22;5609;49.466;8.468;2023-02-28T00:36:58;0.30;99.90
11112;DHT22;5609;49.466;8.468;2023-02-28T00:39:24;0.30;99.90
11112;DHT22;5609;49.466;8.468;2023-02-28T00:41:51;0.20;99.90
11112;DHT22;5609;49.466;8.468;2023-02-28T00:44:18;0.20;99.90
11112;DHT22;5609;49.466;8.468;2023-02-28T00:46:48;0.20;99.90
11112;DHT22;5609;49.466;8.468;2023-02-28T00:49:14;0.20;99.90
11112;DHT22;5609;49.466;8.468;2023-02-28T00:51:41;0.10;99.90
11112;DHT22;5609;49.466;8.468;2023-02-28T00:54:08;0.00;99.90
11112;DHT22;5609;49.466;8.468;2023-02-28T00:56:35;0.10;99.90
11112;DHT22;5609;49.466;8.468;2023-02-28T00:59:01;0.00;99.90
11112;DHT22;5609;49.466;8.468;2023-02-28T01:01:28;0.00;99.90
11112;DHT22;5609;49.466;8.468;2023-02-28T01:03:56;0.00;99.90
11112;DHT22;5609;49.466;8.468;2023-02-28T01:06:23;-0.10;99.90
11112;DHT22;5609;49.466;8.468;2023-02-28T01:08:50;0.00;99.90
11112;DHT22;5609;49.466;8.468;2023-02-28T01:11:18;-0.10;99.90
11112;DHT22;5609;49.466;8.468;2023-02-28T01:13:45;-0.10;99.90
11112;DHT22;5609;49.466;8.468;2023-02-28T01:16:13;-0.10;99.90
11112;DHT22;5609;49.466;8.468;2023-02-28T01:18:40;-0.20;99.90
11112;DHT22;5609;49.466;8.468;2023-02-28T01:21:10;-0.10;99.90
11112;DHT22;5609;49.466;8.468;2023-02-28T01:23:38;-0.30;99.90
11112;DHT22;5609;49.466;8.468;2023-02-28T01:26:05;-0.20;99.90
11112;DHT22;5609;49.466;8.468;2023-02-28T01:28:32;-0.20;99.90
11112;DHT22;5609;49.466;8.468;2023-02-28T01:30:59;-0.30;99.90
11112;DHT22;5609;49.466;8.468;2023-02-28T01:33:26;-0.30;99.90
11112;DHT22;5609;49.466;8.468;2023-02-28T01:35:57;-0.20;99.90
11112;DHT22;5609;49.466;8.468;2023-02-28T01:38:26;-0.20;99.90
11112;DHT22;5609;49.466;8.468;2023-02-28T01:40:53;-0.30;99.90
11112;DHT22;5609;49.466;8.468;2023-02-28T01:43:22;-0.30;99.90
11112;DHT22;5609;49.466;8.468;2023-02-28T01:45:50;-0.40;99.90
11112;DHT22;5609;49.466;8.468;2023-02-28T01:48:17;-0.40;99.90
11112;DHT22;5609;49.466;8.468;2023-02-28T01:50:45;-0.40;99.90
11112;DHT22;5609;49.466;8.468;2023-02-28T01:53:15;-0.50;99.90
11112;DHT22;5609;49.466;8.468;2023-02-28T01:55:48;-0.50;99.90
11112;DHT22;5609;49.466;8.468;2023-02-28T01:58:17;-0.50;99.90
11112;DHT22;5609;49.466;8.468;2023-02-28T02:00:44;-0.50;99.90
11112;DHT22;5609;49.466;8.468;2023-02-28T02:03:13;-0.60;99.90
11112;DHT22;5609;49.466;8.468;2023-02-28T02:05:41;-0.70;99.90
11112;DHT22;5609;49.466;8.468;2023-02-28T02:08:15;-0.70;99.90
11112;DHT22;5609;49.466;8.468;2023-02-28T02:10:46;-0.70;99.90
11112;DHT22;5609;49.466;8.468;2023-02-28T02:13:47;-0.70;99.90
11112;DHT22;5609;49.466;8.468;2023-02-28T02:16:28;-0.70;99.90
11112;DHT22;5609;49.466;8.468;2023-02-28T02:19:06;-0.70;99.90
11112;DHT22;5609;49.466;8.468;2023-02-28T02:22:08;-0.70;99.90
11112;DHT22;5609;49.466;8.468;2023-02-28T02:24:53;-0.60;99.90
11112;DHT22;5609;49.466;8.468;2023-02-28T02:27:33;-0.60;99.90
11112;DHT22;5609;49.466;8.468;2023-02-28T02:30:30;-0.60;99.90
11112;DHT22;5609;49.466;8.468;2023-02-28T02:33:09;-0.60;99.90
11112;DHT22;5609;49.466;8.468;2023-02-28T02:35:43;-0.60;99.90
11112;DHT22;5609;49.466;8.468;2023-02-28T02:38:18;-0.70;99.90
11112;DHT22;5609;49.466;8.468;2023-02-28T02:40:58;-0.60;99.90
11112;DHT22;5609;49.466;8.468;2023-02-28T02:43:33;-0.60;99.90
11112;DHT22;5609;49.466;8.468;2023-02-28T02:46:06;-0.70;99.90
11112;DHT22;5609;49.466;8.468;2023-02-28T02:48:36;-0.70;99.90
11112;DHT22;5609;49.466;8.468;2023-02-28T02:51:09;-0.60;99.90
11112;DHT22;5609;49.466;8.468;2023-02-28T02:53:42;-0.70;99.90
11112;DHT22;5609;49.466;8.468;2023-02-28T02:56:12;-0.70;99.90
11112;DHT22;5609;49.466;8.468;2023-02-28T02:58:42;-0.70;99.90
11112;DHT22;5609;49.466;8.468;2023-02-28T03:01:14;-0.70;99.90
11112;DHT22;5609;49.466;8.468;2023-02-28T03:03:42;-0.70;99.90
11112;DHT22;5609;49.466;8.468;2023-02-28T03:06:11;-0.80;99.90
11112;DHT22;5609;49.466;8.468;2023-02-28T03:08:38;-0.90;99.90
11112;DHT22;5609;49.466;8.468;2023-02-28T03:11:06;-1.00;99.90
11112;DHT22;5609;49.466;8.468;2023-02-28T03:13:52;-1.00;99.90
11112;DHT22;5609;49.466;8.468;2023-02-28T03:16:34;-1.00;99.90
11112;DHT22;5609;49.466;8.468;2023-02-28T03:19:15;-1.00;99.90
11112;DHT22;5609;49.466;8.468;2023-02-28T03:21:52;-1.00;99.90
11112;DHT22;5609;49.466;8.468;2023-02-28T03:24:24;-1.10;99.90
11112;DHT22;5609;49.466;8.468;2023-02-28T03:26:57;-1.00;99.90
11112;DHT22;5609;49.466;8.468;2023-02-28T03:29:30;-1.10;99.90
11112;DHT22;5609;49.466;8.468;2023-02-28T03:32:02;-1.10;99.90
11112;DHT22;5609;49.466;8.468;2023-02-28T03:34:33;-1.10;99.90
11112;DHT22;5609;49.466;8.468;2023-02-28T03:37:05;-1.20;99.90
11112;DHT22;5609;49.466;8.468;2023-02-28T03:39:37;-1.20;99.90
11112;DHT22;5609;49.466;8.468;2023-02-28T03:42:08;-1.20;99.90
11112;DHT22;5609;49.466;8.468;2023-02-28T03:44:39;-1.30;99.90
11112;DHT22;5609;49.466;8.468;2023-02-28T03:47:09;-1.20;99.90
11112;DHT22;5609;49.466;8.468;2023-02-28T03:49:41;-1.20;99.90
11112;DHT22;5609;49.466;8.468;2023-02-28T03:52:10;-1.20;99.90
11112;DHT22;5609;49.466;8.468;2023-02-28T03:54:41;-1.30;99.90
11112;DHT22;5609;49.466;8.468;2023-02-28T03:57:13;-1.30;99.90
11112;DHT22;5609;49.466;8.468;2023-02-28T03:59:44;-1.30;99.90
11112;DHT22;5609;49.466;8.468;2023-02-28T04:02:12;-1.30;99.90
11112;DHT22;5609;49.466;8.468;2023-02-28T04:04:39;-1.30;99.90
11112;DHT22;5609;49.466;8.468;2023-02-28T04:07:15;-1.30;99.90
11112;DHT22;5609;49.466;8.468;2023-02-28T04:09:42;-1.40;99.90
11112;DHT22;5609;49.466;8.468;2023-02-28T04:12:09;-1.40;99.90
11112;DHT22;5609;49.466;8.468;2023-02-28T04:14:36;-1.30;99.90
11112;DHT22;5609;49.466;8.468;2023-02-28T04:17:03;-1.40;99.90
11112;DHT22;5609;49.466;8.468;2023-02-28T04:19:30;-1.40;99.90
11112;DHT22;5609;49.466;8.468;2023-02-28T04:21:56;-1.40;99.90
11112;DHT22;5609;49.466;8.468;2023-02-28T04:24:26;-1.30;99.90
11112;DHT22;5609;49.466;8.468;2023-02-28T04:26:55;-1.30;99.90
11112;DHT22;5609;49.466;8.468;2023-02-28T04:29:24;-1.30;99.90
11112;DHT22;5609;49.466;8.468;2023-02-28T04:31:51;-1.30;99.90
11112;DHT22;5609;49.466;8.468;2023-02-28T04:34:19;-1.30;99.90
11112;DHT22;5609;49.466;8.468;2023-02-28T04:36:46;-1.40;99.90
11112;DHT22;5609;49.466;8.468;2023-02-28T04:39:14;-1.40;99.90
11112;DHT22;5609;49.466;8.468;2023-02-28T04:41:43;-1.20;99.90
11112;DHT22;5609;49.466;8.468;2023-02-28T04:44:10;-1.10;99.90
11112;DHT22;5609;49.466;8.468;2023-02-28T04:46:37;-1.20;99.90
11112;DHT22;5609;49.466;8.468;2023-02-28T04:49:04;-1.20;99.90
11112;DHT22;5609;49.466;8.468;2023-02-28T04:51:31;-1.30;99.90
11112;DHT22;5609;49.466;8.468;2023-02-28T04:53:57;-1.30;99.90
11112;DHT22;5609;49.466;8.468;2023-02-28T04:56:24;-1.30;99.90
11112;DHT22;5609;49.466;8.468;2023-02-28T04:58:52;-1.30;99.90
11112;DHT22;5609;49.466;8.468;2023-02-28T05:01:23;-1.30;99.90
11112;DHT22;5609;49.466;8.468;2023-02-28T05:03:51;-1.30;99.90
11112;DHT22;5609;49.466;8.468;2023-02-28T05:06:19;-1.30;99.90
11112;DHT22;5609;49.466;8.468;2023-02-28T05:08:46;-1.30;99.90
11112;DHT22;5609;49.466;8.468;2023-02-28T05:11:18;-1.20;99.90
11112;DHT22;5609;49.466;8.468;2023-02-28T05:13:45;-1.20;99.90
11112;DHT22;5609;49.466;8.468;2023-02-28T05:16:14;-1.20;99.90
11112;DHT22;5609;49.466;8.468;2023-02-28T05:18:41;-1.20;99.90
11112;DHT22;5609;49.466;8.468;2023-02-28T05:21:23;-1.10;99.90
11112;DHT22;5609;49.466;8.468;2023-02-28T05:23:51;-1.10;99.90
11112;DHT22;5609;49.466;8.468;2023-02-28T05:26:18;-1.10;99.90
11112;DHT22;5609;49.466;8.468;2023-02-28T05:28:45;-0.90;99.90
11112;DHT22;5609;49.466;8.468;2023-02-28T05:31:12;-0.90;99.90
11112;DHT22;5609;49.466;8.468;2023-02-28T05:33:40;-0.70;99.90
11112;DHT22;5609;49.466;8.468;2023-02-28T05:36:07;-0.70;99.90
11112;DHT22;5609;49.466;8.468;2023-02-28T05:38:34;-0.80;99.90
11112;DHT22;5609;49.466;8.468;2023-02-28T05:41:05;-0.70;99.90
11112;DHT22;5609;49.466;8.468;2023-02-28T05:43:32;-0.60;99.90
11112;DHT22;5609;49.466;8.468;2023-02-28T05:45:58;-0.60;99.90
11112;DHT22;5609;49.466;8.468;2023-02-28T05:48:25;-0.60;99.90
11112;DHT22;5609;49.466;8.468;2023-02-28T05:50:53;-0.60;99.90
11112;DHT22;5609;49.466;8.468;2023-02-28T05:53:20;-0.60;99.90
11112;DHT22;5609;49.466;8.468;2023-02-28T05:55:47;-0.60;99.90
11112;DHT22;5609;49.466;8.468;2023-02-28T05:58:14;-0.60;99.90
11112;DHT22;5609;49.466;8.468;2023-02-28T06:00:40;-0.60;99.90
11112;DHT22;5609;49.466;8.468;2023-02-28T06:03:07;-0.60;99.90
11112;DHT22;5609;49.466;8.468;2023-02-28T06:05:34;-0.60;99.90
11112;DHT22;5609;49.466;8.468;2023-02-28T06:08:02;-0.60;99.90
11112;DHT22;5609;49.466;8.468;2023-02-28T06:10:29;-0.60;99.90
11112;DHT22;5609;49.466;8.468;2023-02-28T06:12:59;-0.60;99.90
11112;DHT22;5609;49.466;8.468;2023-02-28T06:15:28;-0.50;99.90
11112;DHT22;5609;49.466;8.468;2023-02-28T06:17:56;-0.50;99.90
11112;DHT22;5609;49.466;8.468;2023-02-28T06:20:24;-0.50;99.90
11112;DHT22;5609;49.466;8.468;2023-02-28T06:22:51;-0.50;99.90
11112;DHT22;5609;49.466;8.468;2023-02-28T06:25:21;-0.50;99.90
11112;DHT22;5609;49.466;8.468;2023-02-28T06:27:48;-0.50;99.90
11112;DHT22;5609;49.466;8.468;2023-02-28T06:30:15;-0.60;99.90
11112;DHT22;5609;49.466;8.468;2023-02-28T06:32:41;-0.50;99.90
11112;DHT22;5609;49.466;8.468;2023-02-28T06:35:08;-0.50;99.90
11112;DHT22;5609;49.466;8.468;2023-02-28T06:37:35;-0.50;99.90
11112;DHT22;5609;49.466;8.468;2023-02-28T06:40:03;-0.40;99.90
11112;DHT22;5609;49.466;8.468;2023-02-28T06:42:33;-0.40;99.90
11112;DHT22;5609;49.466;8.468;2023-02-28T06:45:01;-0.30;99.90
11112;DHT22;5609;49.466;8.468;2023-02-28T06:47:34;-0.30;99.90
11112;DHT22;5609;49.466;8.468;2023-02-28T06:50:01;-0.30;99.90
11112;DHT22;5609;49.466;8.468;2023-02-28T06:52:28;-0.30;99.90
11112;DHT22;5609;49.466;8.468;2023-02-28T06:54:55;-0.20;99.90
11112;DHT22;5609;49.466;8.468;2023-02-28T06:57:27;-0.20;99.90
11112;DHT22;5609;49.466;8.468;2023-02-28T06:59:57;-0.20;99.90
11112;DHT22;5609;49.466;8.468;2023-02-28T07:02:24;-0.20;99.90
11112;DHT22;5609;49.466;8.468;2023-02-28T07:04:51;-0.20;99.90
11112;DHT22;5609;49.466;8.468;2023-02-28T07:07:18;-0.10;99.90
11112;DHT22;5609;49.466;8.468;2023-02-28T07:09:44;0.10;99.90
11112;DHT22;5609;49.466;8.468;2023-02-28T07:12:11;0.10;99.90
11112;DHT22;5609;49.466;8.468;2023-02-28T07:14:38;0.20;99.90
11112;DHT22;5609;49.466;8.468;2023-02-28T07:17:08;0.30;99.90
11112;DHT22;5609;49.466;8.468;2023-02-28T07:19:36;0.40;99.90
11112;DHT22;5609;49.466;8.468;2023-02-28T07:22:02;0.40;99.90
11112;DHT22;5609;49.466;8.468;2023-02-28T07:24:29;0.50;99.90
11112;DHT22;5609;49.466;8.468;2023-02-28T07:26:56;0.60;99.90
11112;DHT22;5609;49.466;8.468;2023-02-28T07:29:25;0.60;99.90
11112;DHT22;5609;49.466;8.468;2023-02-28T07:31:52;0.60;99.90
11112;DHT22;5609;49.466;8.468;2023-02-28T07:34:20;0.70;99.90
11112;DHT22;5609;49.466;8.468;2023-02-28T07:36:47;0.70;99.90
11112;DHT22;5609;49.466;8.468;2023-02-28T07:39:14;0.80;99.90
11112;DHT22;5609;49.466;8.468;2023-02-28T07:41:40;0.90;99.90
11112;DHT22;5609;49.466;8.468;2023-02-28T07:44:09;1.10;99.90
11112;DHT22;5609;49.466;8.468;2023-02-28T07:46:37;1.30;99.90
11112;DHT22;5609;49.466;8.468;2023-02-28T07:49:04;1.40;99.90
11112;DHT22;5609;49.466;8.468;2023-02-28T07:51:32;1.40;99.90
11112;DHT22;5609;49.466;8.468;2023-02-28T07:53:59;1.50;99.90
11112;DHT22;5609;49.466;8.468;2023-02-28T07:56:26;1.50;99.90
11112;DHT22;5609;49.466;8.468;2023-02-28T07:58:52;1.60;99.90
11112;DHT22;5609;49.466;8.468;2023-02-28T08:01:19;1.80;99.90
11112;DHT22;5609;49.466;8.468;2023-02-28T08:03:47;1.70;99.90
11112;DHT22;5609;49.466;8.468;2023-02-28T08:06:20;1.80;99.90
11112;DHT22;5609;49.466;8.468;2023-02-28T08:08:49;1.80;99.90
11112;DHT22;5609;49.466;8.468;2023-02-28T08:11:16;1.90;99.90
11112;DHT22;5609;49.466;8.468;2023-02-28T08:13:43;1.90;99.90
11112;DHT22;5609;49.466;8.468;2023-02-28T08:16:12;2.00;99.90
11112;DHT22;5609;49.466;8.468;2023-02-28T08:18:40;2.10;99.90
11112;DHT22;5609;49.466;8.468;2023-02-28T08:21:07;2.10;99.90
11112;DHT22;5609;49.466;8.468;2023-02-28T08:23:34;2.20;99.90
11112;DHT22;5609;49.466;8.468;2023-02-28T08:26:03;2.20;99.90
11112;DHT22;5609;49.466;8.468;2023-02-28T08:28:30;2.30;99.90
11112;DHT22;5609;49.466;8.468;2023-02-28T08:30:58;2.40;99.90
11112;DHT22;5609;49.466;8.468;2023-02-28T08:33:25;2.40;99.90
11112;DHT22;5609;49.466;8.468;2023-02-28T08:35:53;2.60;99.90
11112;DHT22;5609;49.466;8.468;2023-02-28T08:38:20;2.70;99.90
11112;DHT22;5609;49.466;8.468;2023-02-28T08:40:47;2.60;99.90
11112;DHT22;5609;49.466;8.468;2023-02-28T08:43:15;2.70;99.90
11112;DHT22;5609;49.466;8.468;2023-02-28T08:45:42;2.70;99.90
11112;DHT22;5609;49.466;8.468;2023-02-28T08:48:09;2.70;99.90
11112;DHT22;5609;49.466;8.468;2023-02-28T08:50:35;2.70;99.90
11112;DHT22;5609;49.466;8.468;2023-02-28T08:53:02;2.80;99.90
11112;DHT22;5609;49.466;8.468;2023-02-28T08:55:29;2.90;99.90
11112;DHT22;5609;49.466;8.468;2023-02-28T08:57:56;2.90;99.90
11112;DHT22;5609;49.466;8.468;2023-02-28T09:00:25;3.00;99.90
11112;DHT22;5609;49.466;8.468;2023-02-28T09:02:52;3.10;99.90
11112;DHT22;5609;49.466;8.468;2023-02-28T09:05:20;3.20;99.90
11112;DHT22;5609;49.466;8.468;2023-02-28T09:07:46;3.30;99.90
11112;DHT22;5609;49.466;8.468;2023-02-28T09:10:13;3.30;99.90
11112;DHT22;5609;49.466;8.468;2023-02-28T09:12:40;3.40;99.90
11112;DHT22;5609;49.466;8.468;2023-02-28T09:15:12;3.50;99.90
11112;DHT22;5609;49.466;8.468;2023-02-28T09:17:40;3.60;99.90
11112;DHT22;5609;49.466;8.468;2023-02-28T09:20:08;3.70;99.90
11112;DHT22;5609;49.466;8.468;2023-02-28T09:22:35;3.70;99.90
11112;DHT22;5609;49.466;8.468;2023-02-28T09:25:02;3.70;99.90
11112;DHT22;5609;49.466;8.468;2023-02-28T09:27:28;3.70;99.90
11112;DHT22;5609;49.466;8.468;2023-02-28T09:29:55;3.80;99.90
11112;DHT22;5609;49.466;8.468;2023-02-28T09:32:22;3.90;99.90
11112;DHT22;5609;49.466;8.468;2023-02-28T09:34:50;4.00;99.90
11112;DHT22;5609;49.466;8.468;2023-02-28T09:37:16;3.90;99.90
11112;DHT22;5609;49.466;8.468;2023-02-28T09:39:43;4.00;99.90
11112;DHT22;5609;49.466;8.468;2023-02-28T09:42:18;4.20;99.90
11112;DHT22;5609;49.466;8.468;2023-02-28T09:44:47;4.40;99.90
11112;DHT22;5609;49.466;8.468;2023-02-28T09:47:21;4.50;98.30
11112;DHT22;5609;49.466;8.468;2023-02-28T09:49:53;4.50;98.80
11112;DHT22;5609;49.466;8.468;2023-02-28T09:52:26;4.60;96.70
11112;DHT22;5609;49.466;8.468;2023-02-28T09:54:55;4.60;94.00
11112;DHT22;5609;49.466;8.468;2023-02-28T09:57:32;4.60;94.70
11112;DHT22;5609;49.466;8.468;2023-02-28T10:00:05;4.70;93.40
11112;DHT22;5609;49.466;8.468;2023-02-28T10:03:04;4.80;93.30
11112;DHT22;5609;49.466;8.468;2023-02-28T10:05:37;5.00;92.70
11112;DHT22;5609;49.466;8.468;2023-02-28T10:08:12;5.00;91.30
11112;DHT22;5609;49.466;8.468;2023-02-28T10:10:41;5.10;91.80
11112;DHT22;5609;49.466;8.468;2023-02-28T10:13:16;5.20;85.40
11112;DHT22;5609;49.466;8.468;2023-02-28T10:15:45;5.10;84.20
11112;DHT22;5609;49.466;8.468;2023-02-28T10:18:16;5.20;88.40
11112;DHT22;5609;49.466;8.468;2023-02-28T10:20:49;5.40;83.50
11112;DHT22;5609;49.466;8.468;2023-02-28T10:23:20;5.60;79.00
11112;DHT22;5609;49.466;8.468;2023-02-28T10:25:52;5.40;77.60
11112;DHT22;5609;49.466;8.468;2023-02-28T10:28:20;5.30;80.00
11112;DHT22;5609;49.466;8.468;2023-02-28T10:30:49;5.40;76.30
11112;DHT22;5609;49.466;8.468;2023-02-28T10:33:19;5.50;76.80
11112;DHT22;5609;49.466;8.468;2023-02-28T10:35:47;5.70;70.50
11112;DHT22;5609;49.466;8.468;2023-02-28T10:38:18;5.80;69.10
11112;DHT22;5609;49.466;8.468;2023-02-28T10:40:45;5.70;67.50
11112;DHT22;5609;49.466;8.468;2023-02-28T10:43:21;5.60;69.70
11112;DHT22;5609;49.466;8.468;2023-02-28T10:45:59;5.60;68.60
11112;DHT22;5609;49.466;8.468;2023-02-28T10:48:33;5.80;64.40
11112;DHT22;5609;49.466;8.468;2023-02-28T10:51:01;5.90;60.70
11112;DHT22;5609;49.466;8.468;2023-02-28T10:53:33;6.30;59.60
11112;DHT22;5609;49.466;8.468;2023-02-28T10:56:02;6.30;57.60
11112;DHT22;5609;49.466;8.468;2023-02-28T10:58:31;6.10;52.80
11112;DHT22;5609;49.466;8.468;2023-02-28T11:00:59;5.90;53.80
11112;DHT22;5609;49.466;8.468;2023-02-28T11:03:31;5.80;61.10
11112;DHT22;5609;49.466;8.468;2023-02-28T11:06:03;6.00;60.40
11112;DHT22;5609;49.466;8.468;2023-02-28T11:08:32;6.30;56.70
11112;DHT22;5609;49.466;8.468;2023-02-28T11:11:03;6.60;48.40
11112;DHT22;5609;49.466;8.468;2023-02-28T11:13:33;6.80;47.30
11112;DHT22;5609;49.466;8.468;2023-02-28T11:16:03;6.70;42.80
11112;DHT22;5609;49.466;8.468;2023-02-28T11:18:38;6.70;40.90
11112;DHT22;5609;49.466;8.468;2023-02-28T11:21:06;6.70;42.50
11112;DHT22;5609;49.466;8.468;2023-02-28T11:23:36;6.60;44.70
11112;DHT22;5609;49.466;8.468;2023-02-28T11:26:04;6.60;44.10
11112;DHT22;5609;49.466;8.468;2023-02-28T11:28:36;6.50;43.10
11112;DHT22;5609;49.466;8.468;2023-02-28T11:31:08;6.70;42.80
11112;DHT22;5609;49.466;8.468;2023-02-28T11:33:42;6.90;42.70
11112;DHT22;5609;49.466;8.468;2023-02-28T11:36:12;6.80;41.40
11112;DHT22;5609;49.466;8.468;2023-02-28T11:38:42;6.80;41.10
11112;DHT22;5609;49.466;8.468;2023-02-28T11:41:36;7.00;40.60
11112;DHT22;5609;49.466;8.468;2023-02-28T11:44:23;7.00;39.10
11112;DHT22;5609;49.466;8.468;2023-02-28T11:46:57;7.00;37.20
11112;DHT22;5609;49.466;8.468;2023-02-28T11:49:31;6.90;37.40
11112;DHT22;5609;49.466;8.468;2023-02-28T11:52:05;7.20;36.90
11112;DHT22;5609;49.466;8.468;2023-02-28T11:54:49;7.50;36.80
11112;DHT22;5609;49.466;8.468;2023-02-28T11:57:32;7.80;33.10
11112;DHT22;5609;49.466;8.468;2023-02-28T12:00:08;7.80;31.20
11112;DHT22;5609;49.466;8.468;2023-02-28T12:02:55;7.60;29.20
11112;DHT22;5609;49.466;8.468;2023-02-28T12:05:30;7.60;32.60
11112;DHT22;5609;49.466;8.468;2023-02-28T12:08:10;7.80;27.20
11112;DHT22;5609;49.466;8.468;2023-02-28T12:10:56;8.00;25.10
11112;DHT22;5609;49.466;8.468;2023-02-28T12:13:29;8.30;24.70
11112;DHT22;5609;49.466;8.468;2023-02-28T12:16:16;7.90;22.70
11112;DHT22;5609;49.466;8.468;2023-02-28T12:19:00;7.70;24.60
11112;DHT22;5609;49.466;8.468;2023-02-28T12:21:38;7.40;24.80
11112;DHT22;5609;49.466;8.468;2023-02-28T12:24:31;7.50;27.80
11112;DHT22;5609;49.466;8.468;2023-02-28T12:27:03;7.50;25.60
11112;DHT22;5609;49.466;8.468;2023-02-28T12:29:37;7.40;25.20
11112;DHT22;5609;49.466;8.468;2023-02-28T12:32:11;7.30;24.50
11112;DHT22;5609;49.466;8.468;2023-02-28T12:34:42;7.20;26.60
11112;DHT22;5609;49.466;8.468;2023-02-28T12:37:15;7.40;25.40
11112;DHT22;5609;49.466;8.468;2023-02-28T12:39:46;7.40;25.10
11112;DHT22;5609;49.466;8.468;2023-02-28T12:42:24;7.60;24.90
11112;DHT22;5609;49.466;8.468;2023-02-28T12:44:56;8.10;22.60
11112;DHT22;5609;49.466;8.468;2023-02-28T12:47:24;8.60;19.90
11112;DHT22;5609;49.466;8.468;2023-02-28T12:49:55;9.20;15.50
11112;DHT22;5609;49.466;8.468;2023-02-28T12:52:28;9.30;14.10
11112;DHT22;5609;49.466;8.468;2023-02-28T12:55:00;9.90;9.70
11112;DHT22;5609;49.466;8.468;2023-02-28T12:57:37;10.10;5.00
11112;DHT22;5609;49.466;8.468;2023-02-28T13:00:11;10.30;3.30
11112;DHT22;5609;49.466;8.468;2023-02-28T13:03:10;10.80;1.00
11112;DHT22;5609;49.466;8.468;2023-02-28T13:05:55;11.10;1.00
11112;DHT22;5609;49.466;8.468;2023-02-28T13:11:42;10.70;1.00
11112;DHT22;5609;49.466;8.468;2023-02-28T13:14:27;10.60;1.00
11112;DHT22;5609;49.466;8.468;2023-02-28T13:17:00;10.90;1.00
11112;DHT22;5609;49.466;8.468;2023-02-28T13:19:37;11.20;1.00
11112;DHT22;5609;49.466;8.468;2023-02-28T13:22:37;11.60;1.00
11112;DHT22;5609;49.466;8.468;2023-02-28T13:34:16;11.90;1.00
11112;DHT22;5609;49.466;8.468;2023-02-28T13:36:43;12.30;1.00
11112;DHT22;5609;49.466;8.468;2023-02-28T13:39:45;12.60;1.00
11112;DHT22;5609;49.466;8.468;2023-02-28T13:42:33;12.10;1.00
11112;DHT22;5609;49.466;8.468;2023-02-28T13:45:28;11.30;1.00
11112;DHT22;5609;49.466;8.468;2023-02-28T13:48:00;10.90;1.00
11112;DHT22;5609;49.466;8.468;2023-02-28T13:50:30;11.10;1.00
11112;DHT22;5609;49.466;8.468;2023-02-28T13:56:26;10.70;1.00
11112;DHT22;5609;49.466;8.468;2023-02-28T13:58:57;10.30;1.00
11112;DHT22;5609;49.466;8.468;2023-02-28T14:01:42;10.60;1.00
11112;DHT22;5609;49.466;8.468;2023-02-28T14:04:42;11.00;1.00
11112;DHT22;5609;49.466;8.468;2023-02-28T14:07:18;11.30;1.00
11112;DHT22;5609;49.466;8.468;2023-02-28T14:09:52;11.50;1.00
11112;DHT22;5609;49.466;8.468;2023-02-28T14:12:55;12.30;1.00
11112;DHT22;5609;49.466;8.468;2023-02-28T14:15:48;12.90;1.00
11112;DHT22;5609;49.466;8.468;2023-02-28T14:18:28;13.00;1.00
11112;DHT22;5609;49.466;8.468;2023-02-28T14:21:09;13.00;1.00
11112;DHT22;5609;49.466;8.468;2023-02-28T14:27:03;13.00;1.00
11112;DHT22;5609;49.466;8.468;2023-02-28T14:29:51;13.30;1.00
11112;DHT22;5609;49.466;8.468;2023-02-28T14:32:26;13.80;1.00
11112;DHT22;5609;49.466;8.468;2023-02-28T14:35:01;13.40;1.00
11112;DHT22;5609;49.466;8.468;2023-02-28T14:37:33;13.30;1.00
11112;DHT22;5609;49.466;8.468;2023-02-28T14:40:04;12.70;1.00
11112;DHT22;5609;49.466;8.468;2023-02-28T14:42:32;12.30;1.00
11112;DHT22;5609;49.466;8.468;2023-02-28T14:44:59;12.40;1.00
11112;DHT22;5609;49.466;8.468;2023-02-28T14:47:29;12.70;1.00
11112;DHT22;5609;49.466;8.468;2023-02-28T14:49:57;12.70;1.00
11112;DHT22;5609;49.466;8.468;2023-02-28T14:52:26;13.30;1.00
11112;DHT22;5609;49.466;8.468;2023-02-28T14:54:57;13.30;1.00
11112;DHT22;5609;49.466;8.468;2023-02-28T14:57:26;13.40;1.00
11112;DHT22;5609;49.466;8.468;2023-02-28T15:00:01;13.30;1.00
11112;DHT22;5609;49.466;8.468;2023-02-28T15:02:31;13.20;1.00
11112;DHT22;5609;49.466;8.468;2023-02-28T15:05:15;13.00;1.00
11112;DHT22;5609;49.466;8.468;2023-02-28T15:07:43;13.30;1.00
11112;DHT22;5609;49.466;8.468;2023-02-28T15:10:17;13.40;1.00
11112;DHT22;5609;49.466;8.468;2023-02-28T15:12:50;13.80;1.00
11112;DHT22;5609;49.466;8.468;2023-02-28T15:15:19;14.10;1.00
11112;DHT22;5609;49.466;8.468;2023-02-28T15:17:49;14.00;1.00
11112;DHT22;5609;49.466;8.468;2023-02-28T15:20:18;14.10;1.00
11112;DHT22;5609;49.466;8.468;2023-02-28T15:22:46;14.00;1.00
11112;DHT22;5609;49.466;8.468;2023-02-28T15:25:18;14.40;1.00
11112;DHT22;5609;49.466;8.468;2023-02-28T15:27:49;14.60;1.00
11112;DHT22;5609;49.466;8.468;2023-02-28T15:30:18;14.40;1.00
11112;DHT22;5609;49.466;8.468;2023-02-28T15:33:02;14.10;1.00
11112;DHT22;5609;49.466;8.468;2023-02-28T15:35:31;13.80;1.00
11112;DHT22;5609;49.466;8.468;2023-02-28T15:38:01;13.80;1.00
11112;DHT22;5609;49.466;8.468;2023-02-28T15:40:33;13.30;1.00
11112;DHT22;5609;49.466;8.468;2023-02-28T15:43:04;13.10;1.00
11112;DHT22;5609;49.466;8.468;2023-02-28T15:45:37;12.80;1.00
11112;DHT22;5609;49.466;8.468;2023-02-28T15:48:16;12.50;1.00
11112;DHT22;5609;49.466;8.468;2023-02-28T15:50:44;12.20;1.00
11112;DHT22;5609;49.466;8.468;2023-02-28T15:53:14;12.00;1.00
11112;DHT22;5609;49.466;8.468;2023-02-28T15:55:43;11.30;1.00
11112;DHT22;5609;49.466;8.468;2023-02-28T15:58:12;11.00;1.00
11112;DHT22;5609;49.466;8.468;2023-02-28T16:00:39;10.70;1.00
11112;DHT22;5609;49.466;8.468;2023-02-28T16:03:23;10.40;1.00
11112;DHT22;5609;49.466;8.468;2023-02-28T16:08:49;10.20;1.00
11112;DHT22;5609;49.466;8.468;2023-02-28T16:11:18;10.20;1.00
11112;DHT22;5609;49.466;8.468;2023-02-28T16:13:46;10.00;1.00
11112;DHT22;5609;49.466;8.468;2023-02-28T16:16:15;9.40;1.00
11112;DHT22;5609;49.466;8.468;2023-02-28T16:18:42;9.20;1.00
11112;DHT22;5609;49.466;8.468;2023-02-28T16:21:09;9.00;1.00
11112;DHT22;5609;49.466;8.468;2023-02-28T16:23:36;9.10;1.00
11112;DHT22;5609;49.466;8.468;2023-02-28T16:26:03;8.90;1.00
11112;DHT22;5609;49.466;8.468;2023-02-28T16:28:33;9.00;1.00
11112;DHT22;5609;49.466;8.468;2023-02-28T16:31:03;8.70;1.00
11112;DHT22;5609;49.466;8.468;2023-02-28T16:33:30;8.20;1.00
11112;DHT22;5609;49.466;8.468;2023-02-28T16:35:57;7.80;1.00
11112;DHT22;5609;49.466;8.468;2023-02-28T16:38:24;7.60;2.10
11112;DHT22;5609;49.466;8.468;2023-02-28T16:40:52;7.40;4.90
11112;DHT22;5609;49.466;8.468;2023-02-28T16:43:23;7.20;8.70